Impacts TAF Board
For situational awareness. Not to be used for flight planning purposes.
IDs:

KGTR - Golden Triangle Arpt, MS, US

Issued at 0738 UTC 16 Oct 2018
Updated at 0825 UTC 16 Oct 2018
Potential Impact None Slight Moderate High
Time0810Z 16/09Z 16/10Z 16/11Z 16/12Z 16/13Z 16/14Z 16/15Z 16/16Z 16/17Z 16/18Z 16/19Z 16/20Z 16/21Z>>
Type OBS PRVL PRVL PRVL PRVL PRVL PRVL PRVL PRVL PRVL PRVL PRVL PRVL PRVL
VIS 10 >6 >6 >6 >6 >6 >6 >6 >6 >6 >6 >6 >6 >6
CIG 8 5 5 5 5 5 15 15 15 15 25 25 25 25
Cover OVC BKN BKN BKN BKN BKN BKN BKN BKN BKN BKN BKN BKN BKN
FltCat IFR IFR IFR IFR IFR IFR MVFR MVFR MVFR MVFR MVFR MVFR MVFR MVFR
WX -- VCSH VCSH VCSH VCSH VCSH -RA -RA -RA -RA -RA -RA -RA -RA
WDir 360 350 350 350 350 350 360 360 360 360 10 10 10 10
WSpd 8 11 11 11 11 11 9 9 9 9 6 6 6 6
WGst -- -- -- -- -- -- -- -- -- -- -- -- -- --
Raw TAF
KGTR 160738Z 1608/1706 35011KT P6SM VCSH BKN005
  FM161400 36009KT P6SM -RA BKN015
  FM161800 01006KT P6SM -RA BKN025
  FM170100 35005KT 6SM -RA BR BKN015


Raw METAR
KGTR 160810Z AUTO 36008KT 10SM BKN008 OVC015 14/13 A3018 RMK AO2 CIG 006V012
KGTR 160756Z AUTO 01010KT 10SM BKN005 OVC013 14/13 A3018 RMK AO2 CIG 005V009 SLP219 T01440128
KGTR 160656Z AUTO 35011KT 10SM OVC005 14/13 A3019 RMK AO2 SLP222 T01390128
KGTR 160556Z AUTO 35011KT 8SM OVC005 15/14 A3019 RMK AO2 SLP223 T01500139 10200 20150 403110150 53005
KGTR 160534Z AUTO 33011KT 10SM OVC005 15/14 A3018 RMK AO2

METAR Board
Radar Display
Forecast Discussion
For situational awareness. Not to be used for flight planning purposes.